Hilltop Lakes, Texas
Current Conditions -  °F | °C
As of 3:55 AM on Saturday 25 Oct 2014 (Local Time) from KCFD Reporting Station
Clear Clear  
Wind Chill: 61°   Ceiling: Unl
Heat Index: 61°   Visibility: 10mi
Dew Point: 56°   Wind: 3mph
Humidity: 85%   Direction: 170°S
Pressure: 30.14"   Gusts: NA
Location:  31.1118°N, 96.1332°W
Report Text: KCFD 250855Z AUTO 17003KT 10SM CLR 16/14 A3014 RMK AO2 T01610135
Loading
Personal Weather Stations






























Interactive Weather Map
Tropical Storm Tracking
New forecast layout! Learn more

10-Day Weather Forecast

Advertisements
Track Severe Weather on mobile